Terminal Aerodrome Forecast
Issued by NWS

Home | Current Version | Previous Version | Text Only | Print | Product List | Glossary On
Versions: 1 2 3 4 5 6 7 8 9 10 11 12 13 14 15 16 17 18 19 20 21 22 23 24 25 26 27 28 29 30 31 32 33
000
FTUS43 KABR 261100
TAFATY
TAF
KATY 261139Z 2612/2712 19005KT P6SM VCTS SCT070CB BKN120
      TEMPO 2612/2614 P6SM -SHRA BKN070
     FM261400 21009KT P6SM SCT120
     FM261800 28016G25KT P6SM FEW050
     FM262200 29023G33KT P6SM FEW070
     FM270200 31010KT P6SM SKC=

USA.gov is the U.S. government's official web portal to all federal, state and local government web resources and services.